createdAt,value
2023-12-17T00:01:47.557Z,0.43
2023-12-17T00:06:50.527Z,3.50
2023-12-17T00:11:54.228Z,10.52
2023-12-17T00:16:57.075Z,1.27
2023-12-17T00:22:00.170Z,7.97
2023-12-17T00:27:03.559Z,1.65
2023-12-17T00:32:07.216Z,2.45
2023-12-17T00:37:10.135Z,1.85
2023-12-17T00:42:13.369Z,0.98
2023-12-17T00:47:16.278Z,2.42
2023-12-17T00:52:22.241Z,3.65
2023-12-17T00:57:26.856Z,1.40
2023-12-17T01:02:30.257Z,5.05
2023-12-17T01:07:33.521Z,6.05
2023-12-17T01:12:37.206Z,1.42
2023-12-17T01:17:40.661Z,3.42
2023-12-17T01:22:44.043Z,0.20
2023-12-17T01:27:47.491Z,4.43
2023-12-17T01:32:50.615Z,0.90
2023-12-17T01:37:53.423Z,1.88
2023-12-17T01:42:57.896Z,2.08
2023-12-17T01:48:01.411Z,2.38
2023-12-17T01:53:04.604Z,3.40
2023-12-17T01:58:10.208Z,0.70
2023-12-17T02:03:13.848Z,0.50
2023-12-17T02:08:17.733Z,6.60
2023-12-17T02:13:21.610Z,1.50
2023-12-17T02:18:25.096Z,1.90
2023-12-17T02:23:28.300Z,0.60
2023-12-17T02:28:32.510Z,2.00
2023-12-17T02:33:35.671Z,0.77
2023-12-17T02:38:38.802Z,8.38
2023-12-17T02:43:42.541Z,1.48
2023-12-17T02:48:45.659Z,2.88
2023-12-17T02:53:49.272Z,6.53
2023-12-17T02:58:54.250Z,0.70
2023-12-17T03:03:57.763Z,1.73
2023-12-17T03:09:01.334Z,1.88
2023-12-17T03:14:12.233Z,1.25
2023-12-17T03:19:15.635Z,5.72
2023-12-17T03:24:19.307Z,5.57
2023-12-17T03:29:22.636Z,2.67
2023-12-17T03:34:27.566Z,0.45
2023-12-17T03:39:31.547Z,1.00
2023-12-17T03:44:37.542Z,6.20
2023-12-17T03:49:41.954Z,0.93
2023-12-17T03:54:45.396Z,20.15
2023-12-17T03:59:50.338Z,5.32
2023-12-17T04:04:53.825Z,7.03
2023-12-17T04:10:03.153Z,13.18
2023-12-17T04:15:11.311Z,14.38
2023-12-17T04:20:15.435Z,5.35
2023-12-17T04:25:18.633Z,0.98
2023-12-17T04:30:22.269Z,2.00
2023-12-17T04:35:25.656Z,1.10
2023-12-17T04:40:28.831Z,11.43
2023-12-17T04:45:32.145Z,14.10
2023-12-17T04:50:36.318Z,12.93
2023-12-17T04:55:40.359Z,5.18
2023-12-17T05:00:44.852Z,2.15
2023-12-17T05:05:48.474Z,4.18
2023-12-17T05:10:53.344Z,1.98
2023-12-17T05:15:59.793Z,13.13
2023-12-17T05:21:08.032Z,5.57
2023-12-17T05:26:11.376Z,13.38
2023-12-17T05:31:14.882Z,5.30
2023-12-17T05:36:19.817Z,14.15
2023-12-17T05:41:25.747Z,10.15
2023-12-17T05:46:28.625Z,23.23
2023-12-17T05:51:32.726Z,14.80
2023-12-17T05:56:43.833Z,19.20
2023-12-17T06:01:47.091Z,14.73
2023-12-17T06:06:50.203Z,24.92
2023-12-17T06:11:56.773Z,23.42
2023-12-17T06:17:00.407Z,24.38
2023-12-17T06:22:04.249Z,11.32
2023-12-17T06:27:08.608Z,41.65
2023-12-17T06:32:13.627Z,40.97
2023-12-17T06:37:16.547Z,31.65
2023-12-17T06:42:20.870Z,30.30
2023-12-17T06:47:28.467Z,25.50
2023-12-17T06:52:32.040Z,24.00
2023-12-17T06:57:37.251Z,19.45
2023-12-17T07:02:40.430Z,23.50
2023-12-17T07:07:48.795Z,26.15
2023-12-17T07:12:53.244Z,16.65
2023-12-17T07:17:56.181Z,20.00
2023-12-17T07:22:59.560Z,23.40
2023-12-17T07:28:03.657Z,24.73
2023-12-17T07:33:08.215Z,22.80
2023-12-17T07:38:11.487Z,13.05
2023-12-17T07:43:16.099Z,13.18
2023-12-17T07:48:19.531Z,18.77
2023-12-17T07:53:23.307Z,22.23
2023-12-17T07:58:26.811Z,21.02
2023-12-17T08:03:29.955Z,15.57
2023-12-17T08:08:33.855Z,12.82
2023-12-17T08:13:38.677Z,12.70
2023-12-17T08:18:41.761Z,15.50
2023-12-17T08:23:45.438Z,17.05
2023-12-17T08:28:50.641Z,24.45
2023-12-17T08:33:55.218Z,18.90
2023-12-17T08:38:58.370Z,16.60
2023-12-17T08:44:03.278Z,21.55
2023-12-17T08:49:07.737Z,25.00
2023-12-17T08:54:15.102Z,20.98
2023-12-17T08:59:17.970Z,14.57
2023-12-17T09:04:21.565Z,15.63
2023-12-17T09:09:25.589Z,18.75
2023-12-17T09:14:28.457Z,8.18
2023-12-17T09:19:31.486Z,12.52
2023-12-17T09:24:35.556Z,26.33
2023-12-17T09:29:38.554Z,15.88
2023-12-17T09:34:42.138Z,20.70
2023-12-17T09:39:47.345Z,15.77
2023-12-17T09:44:50.703Z,13.23
2023-12-17T09:49:55.088Z,29.33
2023-12-17T09:54:58.787Z,35.45
2023-12-17T10:00:02.328Z,31.10
2023-12-17T10:05:08.661Z,22.95
2023-12-17T10:10:12.789Z,17.08
2023-12-17T10:15:16.130Z,21.48
2023-12-17T10:20:20.633Z,15.70
2023-12-17T10:25:27.872Z,12.95
2023-12-17T10:30:34.920Z,18.90
2023-12-17T10:35:38.677Z,14.88
2023-12-17T10:40:43.372Z,14.43
2023-12-17T10:45:49.217Z,13.10
2023-12-17T10:50:53.076Z,18.88
2023-12-17T10:55:57.862Z,22.20
2023-12-17T11:01:01.163Z,20.55
2023-12-17T11:06:07.067Z,20.42
2023-12-17T11:11:10.068Z,20.20
2023-12-17T11:16:26.201Z,10.20
2023-12-17T11:21:29.889Z,14.52
2023-12-17T11:26:46.117Z,22.25
2023-12-17T11:31:49.897Z,4.43
2023-12-17T11:36:54.056Z,19.67
2023-12-17T11:41:59.237Z,17.98
2023-12-17T11:47:02.281Z,28.48
2023-12-17T11:52:16.842Z,16.95
2023-12-17T11:57:25.373Z,21.83
2023-12-17T12:02:29.542Z,11.50
2023-12-17T12:07:34.335Z,16.08
2023-12-17T12:12:37.970Z,13.07
2023-12-17T12:17:43.925Z,16.02
2023-12-17T12:22:49.576Z,9.85
2023-12-17T12:27:56.907Z,18.95
2023-12-17T12:33:14.973Z,12.52
2023-12-17T12:38:22.266Z,16.52
2023-12-17T12:43:26.896Z,17.30
2023-12-17T12:48:30.720Z,15.15
2023-12-17T12:53:34.821Z,20.85
2023-12-17T12:58:38.700Z,14.23
2023-12-17T13:03:42.023Z,19.48
2023-12-17T13:08:45.985Z,22.48
2023-12-17T13:13:50.056Z,25.45
2023-12-17T13:18:58.443Z,19.00
2023-12-17T13:24:08.556Z,17.20
2023-12-17T13:29:14.007Z,26.27
2023-12-17T13:34:21.000Z,15.25
2023-12-17T13:39:26.186Z,24.45
2023-12-17T13:44:29.002Z,15.05
2023-12-17T13:49:38.070Z,25.83
2023-12-17T13:54:42.476Z,18.10
2023-12-17T13:59:52.339Z,19.33
2023-12-17T14:04:57.464Z,12.73
2023-12-17T14:10:01.329Z,20.55
2023-12-17T14:15:07.645Z,22.30
2023-12-17T14:20:14.339Z,17.33
2023-12-17T14:25:23.271Z,25.15
2023-12-17T14:30:26.588Z,22.65
2023-12-17T14:35:30.440Z,47.05
2023-12-17T14:40:34.447Z,24.00
2023-12-17T14:45:37.798Z,23.33
2023-12-17T14:50:40.969Z,21.77
2023-12-17T14:55:44.610Z,10.13
2023-12-17T15:00:47.769Z,8.60
2023-12-17T15:05:51.294Z,13.45
2023-12-17T15:10:55.048Z,11.85
2023-12-17T15:15:58.080Z,10.20
2023-12-17T15:21:01.202Z,15.15
2023-12-17T15:26:05.328Z,13.80
2023-12-17T15:31:13.761Z,20.83
2023-12-17T15:36:19.864Z,13.80
2023-12-17T15:41:24.781Z,17.17
2023-12-17T15:46:27.933Z,18.55
2023-12-17T15:51:31.029Z,14.48
2023-12-17T15:56:34.534Z,17.80
2023-12-17T16:01:37.619Z,18.13
2023-12-17T16:06:41.691Z,7.82
2023-12-17T16:11:46.408Z,14.63
2023-12-17T16:16:50.040Z,17.17
2023-12-17T16:21:53.600Z,17.50
2023-12-17T16:26:57.226Z,19.50
2023-12-17T16:32:00.156Z,8.30
2023-12-17T16:37:03.901Z,17.58
2023-12-17T16:42:07.081Z,14.88
2023-12-17T16:47:10.077Z,15.57
2023-12-17T16:52:13.229Z,17.67
2023-12-17T16:57:16.830Z,20.23
2023-12-17T17:02:20.577Z,14.48
2023-12-17T17:07:23.576Z,22.30
2023-12-17T17:12:27.410Z,15.82
2023-12-17T17:17:30.427Z,15.27
2023-12-17T17:22:33.445Z,16.15
2023-12-17T17:27:37.021Z,10.95
2023-12-17T17:32:40.522Z,11.95
2023-12-17T17:37:43.997Z,14.10
2023-12-17T17:42:47.536Z,17.08
2023-12-17T17:47:50.580Z,21.70
2023-12-17T17:52:53.531Z,15.85
2023-12-17T17:57:57.834Z,14.10
2023-12-17T18:03:01.352Z,15.68
2023-12-17T18:08:05.078Z,10.00
2023-12-17T18:13:08.395Z,12.80
2023-12-17T18:18:11.530Z,18.23
2023-12-17T18:23:15.713Z,11.27
2023-12-17T18:28:19.144Z,18.88
2023-12-17T18:33:22.406Z,12.73
2023-12-17T18:38:25.327Z,13.63
2023-12-17T18:43:28.314Z,15.50
2023-12-17T18:48:31.378Z,11.23
2023-12-17T18:53:35.926Z,11.52
2023-12-17T18:58:39.037Z,6.57
2023-12-17T19:03:43.935Z,14.07
2023-12-17T19:08:48.036Z,10.18
2023-12-17T19:13:51.732Z,11.13
2023-12-17T19:18:55.408Z,9.27
2023-12-17T19:23:58.387Z,11.65
2023-12-17T19:29:02.818Z,11.52
2023-12-17T19:34:05.995Z,9.10
2023-12-17T19:39:09.713Z,14.43
2023-12-17T19:44:13.264Z,9.65
2023-12-17T19:49:17.234Z,8.70
2023-12-17T19:54:20.684Z,11.38
2023-12-17T19:59:23.793Z,15.43
2023-12-17T20:04:26.702Z,9.90
2023-12-17T20:09:30.304Z,17.08
2023-12-17T20:14:33.170Z,14.98
2023-12-17T20:19:36.254Z,17.13
2023-12-17T20:24:39.650Z,16.70
2023-12-17T20:29:45.041Z,11.32
2023-12-17T20:34:47.930Z,16.25
2023-12-17T20:39:51.331Z,11.32
2023-12-17T20:44:54.703Z,15.10
2023-12-17T20:49:58.158Z,13.25
2023-12-17T20:55:07.022Z,10.43
2023-12-17T21:00:11.398Z,19.08
2023-12-17T21:05:15.462Z,14.27
2023-12-17T21:10:23.154Z,17.98
2023-12-17T21:15:26.502Z,10.35
2023-12-17T21:20:32.071Z,16.27
2023-12-17T21:25:35.341Z,12.75
2023-12-17T21:30:38.500Z,17.27
2023-12-17T21:35:41.543Z,20.63
2023-12-17T21:40:45.063Z,10.38
2023-12-17T21:45:48.098Z,16.52
2023-12-17T21:50:51.757Z,19.08
2023-12-17T21:55:55.206Z,14.30
2023-12-17T22:00:58.757Z,16.05
2023-12-17T22:06:02.766Z,16.42
2023-12-17T22:11:06.029Z,17.95
2023-12-17T22:16:16.461Z,17.15
2023-12-17T22:21:20.700Z,16.20
2023-12-17T22:26:25.646Z,10.25
2023-12-17T22:31:29.302Z,17.15
2023-12-17T22:36:33.162Z,13.48
2023-12-17T22:41:44.076Z,20.52
2023-12-17T22:46:47.621Z,15.80
2023-12-17T22:51:51.209Z,4.43
2023-12-17T22:56:56.260Z,22.17
2023-12-17T23:01:59.841Z,14.05
2023-12-17T23:07:03.177Z,12.02
2023-12-17T23:12:07.906Z,20.67
2023-12-17T23:17:11.500Z,20.25
2023-12-17T23:22:15.118Z,6.60
2023-12-17T23:27:19.169Z,18.00
2023-12-17T23:32:29.904Z,11.60
2023-12-17T23:37:34.377Z,10.15
2023-12-17T23:42:38.782Z,23.00
2023-12-17T23:47:43.133Z,18.95
2023-12-17T23:52:46.791Z,18.02
2023-12-17T23:57:51.142Z,26.33
